sensor_id;sensor_type;location;lat;lon;timestamp;P1;durP1;ratioP1;P2;durP2;ratioP2
27847;SDS011;15212;48.830;8.730;2022-10-31T00:01:33;3.95;;;1.22;;
27847;SDS011;15212;48.830;8.730;2022-10-31T00:04:04;5.37;;;1.72;;
27847;SDS011;15212;48.830;8.730;2022-10-31T00:06:33;11.00;;;1.57;;
27847;SDS011;15212;48.830;8.730;2022-10-31T00:09:02;4.78;;;1.20;;
27847;SDS011;15212;48.830;8.730;2022-10-31T00:11:31;3.25;;;1.40;;
27847;SDS011;15212;48.830;8.730;2022-10-31T00:14:00;7.95;;;1.87;;
27847;SDS011;15212;48.830;8.730;2022-10-31T00:16:29;4.30;;;1.52;;
27847;SDS011;15212;48.830;8.730;2022-10-31T00:18:58;4.15;;;1.65;;
27847;SDS011;15212;48.830;8.730;2022-10-31T00:21:30;3.75;;;1.42;;
27847;SDS011;15212;48.830;8.730;2022-10-31T00:23:59;6.00;;;1.98;;
27847;SDS011;15212;48.830;8.730;2022-10-31T00:26:28;4.53;;;1.55;;
27847;SDS011;15212;48.830;8.730;2022-10-31T00:28:58;7.03;;;1.37;;
27847;SDS011;15212;48.830;8.730;2022-10-31T00:31:27;5.05;;;1.30;;
27847;SDS011;15212;48.830;8.730;2022-10-31T00:33:56;4.60;;;1.90;;
27847;SDS011;15212;48.830;8.730;2022-10-31T00:36:25;6.85;;;1.40;;
27847;SDS011;15212;48.830;8.730;2022-10-31T00:38:53;7.95;;;1.45;;
27847;SDS011;15212;48.830;8.730;2022-10-31T00:41:22;5.53;;;1.40;;
27847;SDS011;15212;48.830;8.730;2022-10-31T00:43:50;7.65;;;1.45;;
27847;SDS011;15212;48.830;8.730;2022-10-31T00:46:19;4.28;;;1.62;;
27847;SDS011;15212;48.830;8.730;2022-10-31T00:48:47;9.03;;;1.72;;
27847;SDS011;15212;48.830;8.730;2022-10-31T00:51:16;6.70;;;1.42;;
27847;SDS011;15212;48.830;8.730;2022-10-31T00:53:44;4.25;;;1.30;;
27847;SDS011;15212;48.830;8.730;2022-10-31T00:56:12;4.25;;;1.40;;
27847;SDS011;15212;48.830;8.730;2022-10-31T00:58:41;8.45;;;1.60;;
27847;SDS011;15212;48.830;8.730;2022-10-31T01:01:09;4.37;;;1.60;;
27847;SDS011;15212;48.830;8.730;2022-10-31T01:03:37;2.12;;;1.65;;
27847;SDS011;15212;48.830;8.730;2022-10-31T01:06:07;8.33;;;1.42;;
27847;SDS011;15212;48.830;8.730;2022-10-31T01:08:37;5.50;;;1.65;;
27847;SDS011;15212;48.830;8.730;2022-10-31T01:13:39;12.85;;;1.50;;
27847;SDS011;15212;48.830;8.730;2022-10-31T01:16:11;6.65;;;1.75;;
27847;SDS011;15212;48.830;8.730;2022-10-31T01:18:43;8.50;;;1.40;;
27847;SDS011;15212;48.830;8.730;2022-10-31T01:21:13;6.00;;;2.08;;
27847;SDS011;15212;48.830;8.730;2022-10-31T01:23:44;7.25;;;2.05;;
27847;SDS011;15212;48.830;8.730;2022-10-31T01:26:14;3.77;;;1.35;;
27847;SDS011;15212;48.830;8.730;2022-10-31T01:28:49;9.23;;;2.47;;
27847;SDS011;15212;48.830;8.730;2022-10-31T01:31:20;5.10;;;1.52;;
27847;SDS011;15212;48.830;8.730;2022-10-31T01:33:53;6.00;;;1.90;;
27847;SDS011;15212;48.830;8.730;2022-10-31T01:36:23;10.48;;;1.80;;
27847;SDS011;15212;48.830;8.730;2022-10-31T01:38:58;3.00;;;1.50;;
27847;SDS011;15212;48.830;8.730;2022-10-31T01:41:34;4.40;;;1.67;;
27847;SDS011;15212;48.830;8.730;2022-10-31T01:46:49;8.75;;;2.02;;
27847;SDS011;15212;48.830;8.730;2022-10-31T01:49:39;9.83;;;1.87;;
27847;SDS011;15212;48.830;8.730;2022-10-31T01:52:12;6.28;;;1.50;;
27847;SDS011;15212;48.830;8.730;2022-10-31T01:54:55;10.55;;;1.70;;
27847;SDS011;15212;48.830;8.730;2022-10-31T01:57:37;3.47;;;1.60;;
27847;SDS011;15212;48.830;8.730;2022-10-31T02:00:09;7.60;;;1.70;;
27847;SDS011;15212;48.830;8.730;2022-10-31T02:02:39;5.45;;;1.50;;
27847;SDS011;15212;48.830;8.730;2022-10-31T02:05:09;9.48;;;1.42;;
27847;SDS011;15212;48.830;8.730;2022-10-31T02:07:49;4.25;;;1.50;;
27847;SDS011;15212;48.830;8.730;2022-10-31T02:10:38;4.50;;;1.60;;
27847;SDS011;15212;48.830;8.730;2022-10-31T02:13:10;7.20;;;1.95;;
27847;SDS011;15212;48.830;8.730;2022-10-31T02:15:40;4.40;;;1.60;;
27847;SDS011;15212;48.830;8.730;2022-10-31T02:18:10;4.40;;;1.50;;
27847;SDS011;15212;48.830;8.730;2022-10-31T02:20:42;5.20;;;1.60;;
27847;SDS011;15212;48.830;8.730;2022-10-31T02:23:25;8.00;;;2.05;;
27847;SDS011;15212;48.830;8.730;2022-10-31T02:31:52;3.65;;;1.70;;
27847;SDS011;15212;48.830;8.730;2022-10-31T02:34:52;3.55;;;1.42;;
27847;SDS011;15212;48.830;8.730;2022-10-31T02:37:57;3.98;;;1.67;;
27847;SDS011;15212;48.830;8.730;2022-10-31T02:40:34;5.22;;;1.62;;
27847;SDS011;15212;48.830;8.730;2022-10-31T02:43:21;4.03;;;1.87;;
27847;SDS011;15212;48.830;8.730;2022-10-31T02:48:26;3.05;;;1.30;;
27847;SDS011;15212;48.830;8.730;2022-10-31T02:50:59;3.40;;;1.57;;
27847;SDS011;15212;48.830;8.730;2022-10-31T02:53:33;3.33;;;1.62;;
27847;SDS011;15212;48.830;8.730;2022-10-31T02:56:07;4.50;;;1.75;;
27847;SDS011;15212;48.830;8.730;2022-10-31T02:58:46;5.25;;;2.05;;
27847;SDS011;15212;48.830;8.730;2022-10-31T03:01:22;4.03;;;1.72;;
27847;SDS011;15212;48.830;8.730;2022-10-31T03:12:49;5.65;;;1.87;;
27847;SDS011;15212;48.830;8.730;2022-10-31T03:18:17;7.03;;;1.75;;
27847;SDS011;15212;48.830;8.730;2022-10-31T03:20:39;6.17;;;1.55;;
27847;SDS011;15212;48.830;8.730;2022-10-31T03:23:11;12.55;;;2.12;;
27847;SDS011;15212;48.830;8.730;2022-10-31T03:25:45;3.65;;;1.62;;
27847;SDS011;15212;48.830;8.730;2022-10-31T03:28:16;6.60;;;2.27;;
27847;SDS011;15212;48.830;8.730;2022-10-31T03:30:49;4.78;;;1.90;;
27847;SDS011;15212;48.830;8.730;2022-10-31T03:33:21;13.13;;;2.15;;
27847;SDS011;15212;48.830;8.730;2022-10-31T03:35:53;5.03;;;1.27;;
27847;SDS011;15212;48.830;8.730;2022-10-31T03:38:24;6.70;;;1.40;;
27847;SDS011;15212;48.830;8.730;2022-10-31T03:40:53;6.17;;;1.65;;
27847;SDS011;15212;48.830;8.730;2022-10-31T03:43:26;5.12;;;2.62;;
27847;SDS011;15212;48.830;8.730;2022-10-31T03:45:57;5.67;;;1.35;;
27847;SDS011;15212;48.830;8.730;2022-10-31T03:48:32;6.67;;;1.97;;
27847;SDS011;15212;48.830;8.730;2022-10-31T03:51:06;10.53;;;1.82;;
27847;SDS011;15212;48.830;8.730;2022-10-31T03:54:04;9.48;;;1.80;;
27847;SDS011;15212;48.830;8.730;2022-10-31T03:56:36;5.55;;;1.60;;
27847;SDS011;15212;48.830;8.730;2022-10-31T03:59:13;11.25;;;2.12;;
27847;SDS011;15212;48.830;8.730;2022-10-31T04:01:50;2.42;;;1.10;;
27847;SDS011;15212;48.830;8.730;2022-10-31T04:04:22;3.10;;;1.30;;
27847;SDS011;15212;48.830;8.730;2022-10-31T04:06:52;7.17;;;1.80;;
27847;SDS011;15212;48.830;8.730;2022-10-31T04:09:24;4.22;;;1.60;;
27847;SDS011;15212;48.830;8.730;2022-10-31T04:11:56;5.20;;;1.30;;
27847;SDS011;15212;48.830;8.730;2022-10-31T04:14:26;4.83;;;1.98;;
27847;SDS011;15212;48.830;8.730;2022-10-31T04:16:57;10.08;;;1.80;;
27847;SDS011;15212;48.830;8.730;2022-10-31T04:19:26;4.92;;;1.27;;
27847;SDS011;15212;48.830;8.730;2022-10-31T04:21:54;3.02;;;1.50;;
27847;SDS011;15212;48.830;8.730;2022-10-31T04:24:23;10.00;;;1.60;;
27847;SDS011;15212;48.830;8.730;2022-10-31T04:26:51;8.50;;;1.95;;
27847;SDS011;15212;48.830;8.730;2022-10-31T04:29:19;5.12;;;2.10;;
27847;SDS011;15212;48.830;8.730;2022-10-31T04:31:48;4.70;;;1.50;;
27847;SDS011;15212;48.830;8.730;2022-10-31T04:34:16;4.60;;;2.50;;
27847;SDS011;15212;48.830;8.730;2022-10-31T04:36:44;6.53;;;1.90;;
27847;SDS011;15212;48.830;8.730;2022-10-31T04:39:13;5.90;;;1.95;;
27847;SDS011;15212;48.830;8.730;2022-10-31T04:41:41;7.60;;;2.17;;
27847;SDS011;15212;48.830;8.730;2022-10-31T04:44:10;3.20;;;1.40;;
27847;SDS011;15212;48.830;8.730;2022-10-31T04:46:38;6.97;;;2.20;;
27847;SDS011;15212;48.830;8.730;2022-10-31T04:49:06;3.55;;;1.82;;
27847;SDS011;15212;48.830;8.730;2022-10-31T04:51:35;5.40;;;1.98;;
27847;SDS011;15212;48.830;8.730;2022-10-31T04:54:03;5.72;;;1.87;;
27847;SDS011;15212;48.830;8.730;2022-10-31T04:56:32;6.30;;;1.57;;
27847;SDS011;15212;48.830;8.730;2022-10-31T04:59:00;4.75;;;1.98;;
27847;SDS011;15212;48.830;8.730;2022-10-31T05:01:28;5.85;;;1.70;;
27847;SDS011;15212;48.830;8.730;2022-10-31T05:03:57;6.53;;;1.75;;
27847;SDS011;15212;48.830;8.730;2022-10-31T05:06:25;3.90;;;2.05;;
27847;SDS011;15212;48.830;8.730;2022-10-31T05:08:53;11.12;;;2.00;;
27847;SDS011;15212;48.830;8.730;2022-10-31T05:11:22;5.37;;;1.77;;
27847;SDS011;15212;48.830;8.730;2022-10-31T05:13:50;3.65;;;1.70;;
27847;SDS011;15212;48.830;8.730;2022-10-31T05:16:19;4.92;;;1.52;;
27847;SDS011;15212;48.830;8.730;2022-10-31T05:18:47;11.22;;;2.05;;
27847;SDS011;15212;48.830;8.730;2022-10-31T05:21:15;7.65;;;1.77;;
27847;SDS011;15212;48.830;8.730;2022-10-31T05:23:44;7.87;;;1.80;;
27847;SDS011;15212;48.830;8.730;2022-10-31T05:26:12;6.67;;;1.82;;
27847;SDS011;15212;48.830;8.730;2022-10-31T05:28:41;6.15;;;1.67;;
27847;SDS011;15212;48.830;8.730;2022-10-31T05:31:09;5.30;;;1.52;;
27847;SDS011;15212;48.830;8.730;2022-10-31T05:33:37;5.97;;;1.90;;
27847;SDS011;15212;48.830;8.730;2022-10-31T05:36:06;9.23;;;2.15;;
27847;SDS011;15212;48.830;8.730;2022-10-31T05:38:34;7.33;;;1.80;;
27847;SDS011;15212;48.830;8.730;2022-10-31T05:41:03;6.60;;;1.77;;
27847;SDS011;15212;48.830;8.730;2022-10-31T05:43:31;4.78;;;1.75;;
27847;SDS011;15212;48.830;8.730;2022-10-31T05:46:00;4.30;;;2.17;;
27847;SDS011;15212;48.830;8.730;2022-10-31T05:48:28;4.97;;;2.15;;
27847;SDS011;15212;48.830;8.730;2022-10-31T05:50:56;3.87;;;1.75;;
27847;SDS011;15212;48.830;8.730;2022-10-31T05:53:25;4.17;;;1.60;;
27847;SDS011;15212;48.830;8.730;2022-10-31T05:55:53;3.70;;;1.95;;
27847;SDS011;15212;48.830;8.730;2022-10-31T05:58:21;5.58;;;1.98;;
27847;SDS011;15212;48.830;8.730;2022-10-31T06:00:50;11.05;;;2.20;;
27847;SDS011;15212;48.830;8.730;2022-10-31T06:03:19;4.00;;;1.72;;
27847;SDS011;15212;48.830;8.730;2022-10-31T06:05:47;8.98;;;1.65;;
27847;SDS011;15212;48.830;8.730;2022-10-31T06:08:16;3.08;;;1.75;;
27847;SDS011;15212;48.830;8.730;2022-10-31T06:10:44;7.40;;;2.35;;
27847;SDS011;15212;48.830;8.730;2022-10-31T06:13:13;5.72;;;1.77;;
27847;SDS011;15212;48.830;8.730;2022-10-31T06:15:41;5.00;;;1.67;;
27847;SDS011;15212;48.830;8.730;2022-10-31T06:18:10;5.67;;;1.85;;
27847;SDS011;15212;48.830;8.730;2022-10-31T06:20:38;6.08;;;1.82;;
27847;SDS011;15212;48.830;8.730;2022-10-31T06:23:06;8.35;;;2.22;;
27847;SDS011;15212;48.830;8.730;2022-10-31T06:25:35;6.78;;;1.82;;
27847;SDS011;15212;48.830;8.730;2022-10-31T06:28:03;9.48;;;2.35;;
27847;SDS011;15212;48.830;8.730;2022-10-31T06:30:32;9.73;;;2.00;;
27847;SDS011;15212;48.830;8.730;2022-10-31T06:33:02;3.27;;;1.57;;
27847;SDS011;15212;48.830;8.730;2022-10-31T06:35:32;5.67;;;2.62;;
27847;SDS011;15212;48.830;8.730;2022-10-31T06:38:00;4.15;;;1.87;;
27847;SDS011;15212;48.830;8.730;2022-10-31T06:40:28;6.95;;;1.90;;
27847;SDS011;15212;48.830;8.730;2022-10-31T06:42:58;4.72;;;1.67;;
27847;SDS011;15212;48.830;8.730;2022-10-31T06:45:27;3.75;;;1.70;;
27847;SDS011;15212;48.830;8.730;2022-10-31T06:47:56;7.92;;;1.87;;
27847;SDS011;15212;48.830;8.730;2022-10-31T06:50:24;3.77;;;1.82;;
27847;SDS011;15212;48.830;8.730;2022-10-31T06:52:53;4.42;;;1.50;;
27847;SDS011;15212;48.830;8.730;2022-10-31T06:55:24;5.87;;;1.60;;
27847;SDS011;15212;48.830;8.730;2022-10-31T06:58:00;4.00;;;1.55;;
27847;SDS011;15212;48.830;8.730;2022-10-31T07:00:29;3.20;;;1.87;;
27847;SDS011;15212;48.830;8.730;2022-10-31T07:03:03;6.30;;;1.67;;
27847;SDS011;15212;48.830;8.730;2022-10-31T07:05:31;4.70;;;1.60;;
27847;SDS011;15212;48.830;8.730;2022-10-31T07:08:01;2.72;;;1.50;;
27847;SDS011;15212;48.830;8.730;2022-10-31T07:10:33;3.05;;;1.52;;
27847;SDS011;15212;48.830;8.730;2022-10-31T07:13:04;6.87;;;1.57;;
27847;SDS011;15212;48.830;8.730;2022-10-31T07:15:38;27.13;;;4.33;;
27847;SDS011;15212;48.830;8.730;2022-10-31T07:18:08;7.08;;;1.70;;
27847;SDS011;15212;48.830;8.730;2022-10-31T07:20:38;11.93;;;2.30;;
27847;SDS011;15212;48.830;8.730;2022-10-31T07:23:07;4.85;;;1.82;;
27847;SDS011;15212;48.830;8.730;2022-10-31T07:25:38;5.78;;;2.30;;
27847;SDS011;15212;48.830;8.730;2022-10-31T07:28:07;5.70;;;1.80;;
27847;SDS011;15212;48.830;8.730;2022-10-31T07:30:35;7.65;;;1.72;;
27847;SDS011;15212;48.830;8.730;2022-10-31T07:33:05;7.40;;;1.95;;
27847;SDS011;15212;48.830;8.730;2022-10-31T07:35:34;5.92;;;1.90;;
27847;SDS011;15212;48.830;8.730;2022-10-31T07:38:06;3.83;;;1.50;;
27847;SDS011;15212;48.830;8.730;2022-10-31T07:40:40;8.08;;;1.80;;
27847;SDS011;15212;48.830;8.730;2022-10-31T07:43:10;7.35;;;2.00;;
27847;SDS011;15212;48.830;8.730;2022-10-31T07:45:39;3.20;;;1.30;;
27847;SDS011;15212;48.830;8.730;2022-10-31T07:48:07;8.75;;;2.33;;
27847;SDS011;15212;48.830;8.730;2022-10-31T07:50:36;8.63;;;1.70;;
27847;SDS011;15212;48.830;8.730;2022-10-31T07:53:06;7.62;;;1.70;;
27847;SDS011;15212;48.830;8.730;2022-10-31T07:55:37;2.77;;;1.55;;
27847;SDS011;15212;48.830;8.730;2022-10-31T07:58:09;6.85;;;1.47;;
27847;SDS011;15212;48.830;8.730;2022-10-31T08:00:43;5.17;;;1.57;;
27847;SDS011;15212;48.830;8.730;2022-10-31T08:03:15;3.37;;;1.22;;
27847;SDS011;15212;48.830;8.730;2022-10-31T08:05:45;6.45;;;1.35;;
27847;SDS011;15212;48.830;8.730;2022-10-31T08:08:14;4.85;;;1.37;;
27847;SDS011;15212;48.830;8.730;2022-10-31T08:10:43;11.45;;;1.82;;
27847;SDS011;15212;48.830;8.730;2022-10-31T08:13:12;4.80;;;1.87;;
27847;SDS011;15212;48.830;8.730;2022-10-31T08:15:41;5.05;;;1.95;;
27847;SDS011;15212;48.830;8.730;2022-10-31T08:18:13;6.47;;;1.70;;
27847;SDS011;15212;48.830;8.730;2022-10-31T08:20:42;2.20;;;1.20;;
27847;SDS011;15212;48.830;8.730;2022-10-31T08:23:11;6.10;;;1.40;;
27847;SDS011;15212;48.830;8.730;2022-10-31T08:25:40;8.03;;;1.70;;
27847;SDS011;15212;48.830;8.730;2022-10-31T08:28:09;4.37;;;1.87;;
27847;SDS011;15212;48.830;8.730;2022-10-31T08:30:38;6.40;;;1.20;;
27847;SDS011;15212;48.830;8.730;2022-10-31T08:33:13;2.22;;;1.50;;
27847;SDS011;15212;48.830;8.730;2022-10-31T08:35:40;6.12;;;1.20;;
27847;SDS011;15212;48.830;8.730;2022-10-31T08:38:10;7.12;;;1.98;;
27847;SDS011;15212;48.830;8.730;2022-10-31T08:40:40;8.05;;;1.52;;
27847;SDS011;15212;48.830;8.730;2022-10-31T08:43:12;3.10;;;1.40;;
27847;SDS011;15212;48.830;8.730;2022-10-31T08:45:42;2.58;;;1.15;;
27847;SDS011;15212;48.830;8.730;2022-10-31T08:48:14;2.87;;;1.32;;
27847;SDS011;15212;48.830;8.730;2022-10-31T08:50:44;3.87;;;1.37;;
27847;SDS011;15212;48.830;8.730;2022-10-31T08:53:14;10.55;;;1.52;;
27847;SDS011;15212;48.830;8.730;2022-10-31T08:55:45;10.05;;;1.50;;
27847;SDS011;15212;48.830;8.730;2022-10-31T08:58:19;8.18;;;1.30;;
27847;SDS011;15212;48.830;8.730;2022-10-31T09:00:46;7.17;;;1.62;;
27847;SDS011;15212;48.830;8.730;2022-10-31T09:03:20;4.03;;;1.15;;
27847;SDS011;15212;48.830;8.730;2022-10-31T09:05:54;5.15;;;1.50;;
27847;SDS011;15212;48.830;8.730;2022-10-31T09:08:29;6.05;;;1.80;;
27847;SDS011;15212;48.830;8.730;2022-10-31T09:10:58;4.30;;;1.40;;
27847;SDS011;15212;48.830;8.730;2022-10-31T09:13:27;6.10;;;1.47;;
27847;SDS011;15212;48.830;8.730;2022-10-31T09:15:55;5.08;;;1.27;;
27847;SDS011;15212;48.830;8.730;2022-10-31T09:18:27;5.78;;;1.80;;
27847;SDS011;15212;48.830;8.730;2022-10-31T09:20:58;5.55;;;1.40;;
27847;SDS011;15212;48.830;8.730;2022-10-31T09:23:27;4.25;;;1.67;;
27847;SDS011;15212;48.830;8.730;2022-10-31T09:25:58;4.22;;;1.60;;
27847;SDS011;15212;48.830;8.730;2022-10-31T09:28:27;5.08;;;1.50;;
27847;SDS011;15212;48.830;8.730;2022-10-31T09:30:57;7.97;;;2.08;;
27847;SDS011;15212;48.830;8.730;2022-10-31T09:33:25;5.05;;;1.62;;
27847;SDS011;15212;48.830;8.730;2022-10-31T09:35:54;9.25;;;1.67;;
27847;SDS011;15212;48.830;8.730;2022-10-31T09:38:24;5.67;;;1.50;;
27847;SDS011;15212;48.830;8.730;2022-10-31T09:41:05;5.75;;;1.62;;
27847;SDS011;15212;48.830;8.730;2022-10-31T09:44:09;3.45;;;1.27;;
27847;SDS011;15212;48.830;8.730;2022-10-31T09:47:12;6.67;;;1.42;;
27847;SDS011;15212;48.830;8.730;2022-10-31T09:53:11;5.95;;;1.95;;
27847;SDS011;15212;48.830;8.730;2022-10-31T09:55:57;3.80;;;1.17;;
27847;SDS011;15212;48.830;8.730;2022-10-31T09:58:27;3.75;;;1.35;;
27847;SDS011;15212;48.830;8.730;2022-10-31T10:01:00;7.47;;;2.05;;
27847;SDS011;15212;48.830;8.730;2022-10-31T10:03:32;3.30;;;1.60;;
27847;SDS011;15212;48.830;8.730;2022-10-31T10:06:14;7.22;;;1.32;;
27847;SDS011;15212;48.830;8.730;2022-10-31T10:08:47;3.12;;;1.12;;
27847;SDS011;15212;48.830;8.730;2022-10-31T10:11:38;4.35;;;1.82;;
27847;SDS011;15212;48.830;8.730;2022-10-31T10:17:11;3.20;;;1.35;;
27847;SDS011;15212;48.830;8.730;2022-10-31T10:20:00;5.42;;;1.40;;
27847;SDS011;15212;48.830;8.730;2022-10-31T10:22:43;9.70;;;1.50;;
27847;SDS011;15212;48.830;8.730;2022-10-31T10:25:21;7.55;;;1.52;;
27847;SDS011;15212;48.830;8.730;2022-10-31T10:30:48;4.92;;;1.65;;
27847;SDS011;15212;48.830;8.730;2022-10-31T10:33:38;7.33;;;1.72;;
27847;SDS011;15212;48.830;8.730;2022-10-31T10:36:10;8.28;;;1.90;;
27847;SDS011;15212;48.830;8.730;2022-10-31T10:38:51;5.72;;;1.37;;
27847;SDS011;15212;48.830;8.730;2022-10-31T10:41:32;4.75;;;1.72;;
27847;SDS011;15212;48.830;8.730;2022-10-31T10:44:01;4.00;;;1.67;;
27847;SDS011;15212;48.830;8.730;2022-10-31T10:46:34;3.92;;;1.42;;
27847;SDS011;15212;48.830;8.730;2022-10-31T10:49:30;5.03;;;1.60;;
27847;SDS011;15212;48.830;8.730;2022-10-31T10:55:15;5.65;;;1.90;;
27847;SDS011;15212;48.830;8.730;2022-10-31T10:58:03;8.50;;;1.53;;
27847;SDS011;15212;48.830;8.730;2022-10-31T11:00:40;4.17;;;1.70;;
27847;SDS011;15212;48.830;8.730;2022-10-31T11:03:12;3.70;;;1.60;;
27847;SDS011;15212;48.830;8.730;2022-10-31T11:05:52;12.13;;;2.25;;
27847;SDS011;15212;48.830;8.730;2022-10-31T11:08:24;9.90;;;1.82;;
27847;SDS011;15212;48.830;8.730;2022-10-31T11:10:58;6.12;;;1.92;;
27847;SDS011;15212;48.830;8.730;2022-10-31T11:14:13;9.23;;;1.92;;
27847;SDS011;15212;48.830;8.730;2022-10-31T11:16:38;2.33;;;1.50;;
27847;SDS011;15212;48.830;8.730;2022-10-31T11:21:47;6.97;;;2.55;;
27847;SDS011;15212;48.830;8.730;2022-10-31T11:24:17;8.05;;;2.12;;
27847;SDS011;15212;48.830;8.730;2022-10-31T11:26:51;7.87;;;1.75;;
27847;SDS011;15212;48.830;8.730;2022-10-31T11:29:24;4.78;;;1.60;;
27847;SDS011;15212;48.830;8.730;2022-10-31T11:31:54;3.17;;;1.40;;
27847;SDS011;15212;48.830;8.730;2022-10-31T11:34:27;3.33;;;1.25;;
27847;SDS011;15212;48.830;8.730;2022-10-31T11:37:13;7.33;;;1.65;;
27847;SDS011;15212;48.830;8.730;2022-10-31T11:39:53;8.75;;;2.25;;
27847;SDS011;15212;48.830;8.730;2022-10-31T11:42:26;8.40;;;3.05;;
27847;SDS011;15212;48.830;8.730;2022-10-31T11:45:05;7.80;;;1.47;;
27847;SDS011;15212;48.830;8.730;2022-10-31T11:47:31;8.03;;;2.45;;
27847;SDS011;15212;48.830;8.730;2022-10-31T11:50:08;9.60;;;2.22;;
27847;SDS011;15212;48.830;8.730;2022-10-31T11:52:36;6.10;;;1.75;;
27847;SDS011;15212;48.830;8.730;2022-10-31T11:57:46;8.15;;;2.17;;
27847;SDS011;15212;48.830;8.730;2022-10-31T12:03:10;4.83;;;1.70;;
27847;SDS011;15212;48.830;8.730;2022-10-31T12:05:58;6.25;;;2.37;;
27847;SDS011;15212;48.830;8.730;2022-10-31T12:08:44;6.30;;;2.65;;
27847;SDS011;15212;48.830;8.730;2022-10-31T12:11:23;3.52;;;1.80;;
27847;SDS011;15212;48.830;8.730;2022-10-31T12:14:06;8.33;;;1.75;;
27847;SDS011;15212;48.830;8.730;2022-10-31T12:16:50;5.55;;;2.27;;
27847;SDS011;15212;48.830;8.730;2022-10-31T12:23:06;8.65;;;2.00;;
27847;SDS011;15212;48.830;8.730;2022-10-31T12:25:47;13.08;;;2.00;;
27847;SDS011;15212;48.830;8.730;2022-10-31T12:28:45;9.88;;;2.10;;
27847;SDS011;15212;48.830;8.730;2022-10-31T12:40:44;4.05;;;1.80;;
27847;SDS011;15212;48.830;8.730;2022-10-31T12:46:03;3.67;;;2.10;;
27847;SDS011;15212;48.830;8.730;2022-10-31T12:57:36;8.00;;;2.22;;
27847;SDS011;15212;48.830;8.730;2022-10-31T13:00:15;7.20;;;2.00;;
27847;SDS011;15212;48.830;8.730;2022-10-31T13:03:14;6.05;;;1.95;;
27847;SDS011;15212;48.830;8.730;2022-10-31T13:06:02;6.83;;;2.02;;
27847;SDS011;15212;48.830;8.730;2022-10-31T13:08:36;5.72;;;1.90;;
27847;SDS011;15212;48.830;8.730;2022-10-31T13:11:14;7.78;;;2.00;;
27847;SDS011;15212;48.830;8.730;2022-10-31T13:13:42;7.15;;;2.70;;
27847;SDS011;15212;48.830;8.730;2022-10-31T13:16:24;6.47;;;2.22;;
27847;SDS011;15212;48.830;8.730;2022-10-31T13:19:02;8.65;;;2.35;;
27847;SDS011;15212;48.830;8.730;2022-10-31T13:27:46;7.28;;;2.45;;
27847;SDS011;15212;48.830;8.730;2022-10-31T13:30:20;11.55;;;2.42;;
27847;SDS011;15212;48.830;8.730;2022-10-31T13:36:05;5.37;;;2.00;;
27847;SDS011;15212;48.830;8.730;2022-10-31T13:38:38;7.37;;;2.33;;
27847;SDS011;15212;48.830;8.730;2022-10-31T13:41:32;2.62;;;1.40;;
27847;SDS011;15212;48.830;8.730;2022-10-31T13:44:24;11.70;;;1.87;;
27847;SDS011;15212;48.830;8.730;2022-10-31T13:46:56;4.67;;;1.72;;
27847;SDS011;15212;48.830;8.730;2022-10-31T13:54:47;9.85;;;1.92;;
27847;SDS011;15212;48.830;8.730;2022-10-31T13:57:21;5.45;;;1.80;;
27847;SDS011;15212;48.830;8.730;2022-10-31T13:59:56;8.93;;;2.58;;
27847;SDS011;15212;48.830;8.730;2022-10-31T14:02:56;6.65;;;2.50;;
27847;SDS011;15212;48.830;8.730;2022-10-31T14:05:23;4.37;;;1.90;;
27847;SDS011;15212;48.830;8.730;2022-10-31T14:08:06;4.12;;;1.80;;
27847;SDS011;15212;48.830;8.730;2022-10-31T14:10:32;7.08;;;2.45;;
27847;SDS011;15212;48.830;8.730;2022-10-31T14:13:07;8.88;;;2.10;;
27847;SDS011;15212;48.830;8.730;2022-10-31T14:21:25;5.10;;;2.20;;
27847;SDS011;15212;48.830;8.730;2022-10-31T14:23:52;9.78;;;1.87;;
27847;SDS011;15212;48.830;8.730;2022-10-31T14:28:58;8.35;;;2.25;;
27847;SDS011;15212;48.830;8.730;2022-10-31T14:32:31;9.28;;;2.40;;
27847;SDS011;15212;48.830;8.730;2022-10-31T14:34:38;13.68;;;2.30;;
27847;SDS011;15212;48.830;8.730;2022-10-31T14:37:14;6.42;;;2.12;;
27847;SDS011;15212;48.830;8.730;2022-10-31T14:45:37;4.33;;;2.25;;
27847;SDS011;15212;48.830;8.730;2022-10-31T14:48:35;7.12;;;2.05;;
27847;SDS011;15212;48.830;8.730;2022-10-31T14:51:11;9.00;;;2.08;;
27847;SDS011;15212;48.830;8.730;2022-10-31T14:53:47;5.28;;;2.30;;
27847;SDS011;15212;48.830;8.730;2022-10-31T14:56:23;8.55;;;2.20;;
27847;SDS011;15212;48.830;8.730;2022-10-31T14:58:55;7.37;;;2.65;;
27847;SDS011;15212;48.830;8.730;2022-10-31T15:01:29;8.25;;;2.58;;
27847;SDS011;15212;48.830;8.730;2022-10-31T15:04:02;7.05;;;2.67;;
27847;SDS011;15212;48.830;8.730;2022-10-31T15:10:00;8.85;;;3.22;;
27847;SDS011;15212;48.830;8.730;2022-10-31T15:12:32;6.12;;;2.47;;
27847;SDS011;15212;48.830;8.730;2022-10-31T15:15:11;7.00;;;2.95;;
27847;SDS011;15212;48.830;8.730;2022-10-31T15:17:47;7.80;;;2.58;;
27847;SDS011;15212;48.830;8.730;2022-10-31T15:20:25;7.62;;;3.40;;
27847;SDS011;15212;48.830;8.730;2022-10-31T15:22:57;12.00;;;3.65;;
27847;SDS011;15212;48.830;8.730;2022-10-31T15:25:27;13.38;;;3.47;;
27847;SDS011;15212;48.830;8.730;2022-10-31T15:28:00;8.25;;;3.50;;
27847;SDS011;15212;48.830;8.730;2022-10-31T15:30:28;10.48;;;3.85;;
27847;SDS011;15212;48.830;8.730;2022-10-31T15:32:57;8.63;;;3.15;;
27847;SDS011;15212;48.830;8.730;2022-10-31T15:35:26;11.43;;;3.90;;
27847;SDS011;15212;48.830;8.730;2022-10-31T15:37:57;18.27;;;5.45;;
27847;SDS011;15212;48.830;8.730;2022-10-31T15:40:27;10.78;;;3.87;;
27847;SDS011;15212;48.830;8.730;2022-10-31T15:42:56;11.68;;;4.12;;
27847;SDS011;15212;48.830;8.730;2022-10-31T15:45:30;12.60;;;3.90;;
27847;SDS011;15212;48.830;8.730;2022-10-31T15:48:00;10.60;;;4.12;;
27847;SDS011;15212;48.830;8.730;2022-10-31T15:50:50;9.45;;;3.55;;
27847;SDS011;15212;48.830;8.730;2022-10-31T15:53:20;14.18;;;4.22;;
27847;SDS011;15212;48.830;8.730;2022-10-31T15:55:59;12.20;;;4.03;;
27847;SDS011;15212;48.830;8.730;2022-10-31T15:58:33;12.90;;;4.42;;
27847;SDS011;15212;48.830;8.730;2022-10-31T16:01:20;9.25;;;3.85;;
27847;SDS011;15212;48.830;8.730;2022-10-31T16:06:42;12.43;;;3.35;;
27847;SDS011;15212;48.830;8.730;2022-10-31T16:09:18;13.68;;;3.98;;
27847;SDS011;15212;48.830;8.730;2022-10-31T16:11:50;12.07;;;4.10;;
27847;SDS011;15212;48.830;8.730;2022-10-31T16:14:21;10.60;;;3.10;;
27847;SDS011;15212;48.830;8.730;2022-10-31T16:16:55;6.60;;;2.95;;
27847;SDS011;15212;48.830;8.730;2022-10-31T16:19:27;11.50;;;3.02;;
27847;SDS011;15212;48.830;8.730;2022-10-31T16:22:05;9.30;;;3.83;;
27847;SDS011;15212;48.830;8.730;2022-10-31T16:24:49;10.48;;;4.65;;
27847;SDS011;15212;48.830;8.730;2022-10-31T16:27:25;16.02;;;4.17;;
27847;SDS011;15212;48.830;8.730;2022-10-31T16:29:56;6.70;;;3.62;;
27847;SDS011;15212;48.830;8.730;2022-10-31T16:32:36;11.00;;;3.80;;
27847;SDS011;15212;48.830;8.730;2022-10-31T16:37:55;11.78;;;3.95;;
27847;SDS011;15212;48.830;8.730;2022-10-31T16:40:23;7.10;;;3.40;;
27847;SDS011;15212;48.830;8.730;2022-10-31T16:42:52;7.60;;;3.45;;
27847;SDS011;15212;48.830;8.730;2022-10-31T16:45:23;11.68;;;4.53;;
27847;SDS011;15212;48.830;8.730;2022-10-31T16:47:53;9.08;;;4.50;;
27847;SDS011;15212;48.830;8.730;2022-10-31T16:50:28;8.18;;;3.77;;
27847;SDS011;15212;48.830;8.730;2022-10-31T16:52:56;13.62;;;4.03;;
27847;SDS011;15212;48.830;8.730;2022-10-31T16:55:25;8.20;;;3.33;;
27847;SDS011;15212;48.830;8.730;2022-10-31T16:57:53;8.65;;;3.72;;
27847;SDS011;15212;48.830;8.730;2022-10-31T17:00:24;7.55;;;3.25;;
27847;SDS011;15212;48.830;8.730;2022-10-31T17:02:54;7.40;;;3.10;;
27847;SDS011;15212;48.830;8.730;2022-10-31T17:05:24;13.53;;;3.20;;
27847;SDS011;15212;48.830;8.730;2022-10-31T17:07:58;8.95;;;3.37;;
27847;SDS011;15212;48.830;8.730;2022-10-31T17:10:27;12.03;;;3.22;;